createdAt,value
2019-04-23T00:01:55.591Z,94047.03
2019-04-23T00:04:35.429Z,94044.76
2019-04-23T00:07:44.478Z,94042.58
2019-04-23T00:10:24.823Z,94037.90
2019-04-23T00:13:12.477Z,94029.14
2019-04-23T00:18:49.427Z,94027.39
2019-04-23T00:21:57.370Z,94022.31
2019-04-23T00:27:51.529Z,94017.14
2019-04-23T00:30:46.672Z,94016.28
2019-04-23T00:36:23.092Z,94012.05
2019-04-23T00:39:08.601Z,94006.29
2019-04-23T00:42:05.053Z,94004.02
2019-04-23T00:47:38.706Z,94000.88
2019-04-23T00:56:24.934Z,94001.78
2019-04-23T00:59:01.406Z,93997.59
2019-04-23T01:04:41.768Z,93993.95
2019-04-23T01:07:34.892Z,93987.81
2019-04-23T01:10:36.194Z,93988.39
2019-04-23T01:13:28.751Z,93983.59
2019-04-23T01:16:11.627Z,93984.30
2019-04-23T01:19:06.798Z,93992.03
2019-04-23T01:21:43.300Z,93989.26
2019-04-23T01:24:50.851Z,93983.86
2019-04-23T01:31:16.661Z,93989.69
2019-04-23T01:34:11.135Z,93990.27
2019-04-23T01:37:03.939Z,93988.08
2019-04-23T01:39:45.421Z,93990.39
2019-04-23T01:42:42.027Z,93980.77
2019-04-23T01:45:25.953Z,93988.03
2019-04-23T01:48:12.858Z,93984.92
2019-04-23T01:53:56.669Z,93984.11
2019-04-23T01:56:39.951Z,93981.77
2019-04-23T01:59:43.549Z,93977.27
2019-04-23T02:02:29.265Z,93966.77
2019-04-23T02:05:25.315Z,93965.58
2019-04-23T02:08:09.536Z,93966.40
2019-04-23T02:13:53.286Z,93962.15
2019-04-23T02:16:39.207Z,93956.08
2019-04-23T02:19:32.126Z,93949.36
2019-04-23T02:22:30.917Z,93950.02
2019-04-23T02:25:42.279Z,93952.28
2019-04-23T02:28:18.201Z,93953.71
2019-04-23T02:34:18.616Z,93948.35
2019-04-23T02:39:49.547Z,93936.84
2019-04-23T02:42:49.650Z,93938.52
2019-04-23T02:45:33.216Z,93935.66
2019-04-23T02:48:19.722Z,93934.42
2019-04-23T02:51:03.963Z,93934.75
2019-04-23T02:54:04.168Z,93929.80
2019-04-23T03:02:43.650Z,93912.39
2019-04-23T03:05:26.430Z,93908.55
2019-04-23T03:08:22.537Z,93907.92
2019-04-23T03:11:25.167Z,93908.50
2019-04-23T03:14:00.356Z,93912.89
2019-04-23T03:17:00.261Z,93911.33
2019-04-23T03:20:01.578Z,93905.18
2019-04-23T03:23:22.886Z,93905.43
2019-04-23T03:26:21.314Z,93913.91
2019-04-23T03:37:33.272Z,93905.34
2019-04-23T03:43:18.909Z,93907.72
2019-04-23T03:46:12.452Z,93907.09
2019-04-23T03:51:42.415Z,93907.75
2019-04-23T03:57:24.859Z,93903.16
2019-04-23T04:00:12.596Z,93910.82
2019-04-23T04:06:11.468Z,93904.38
2019-04-23T04:08:36.959Z,93902.79
2019-04-23T04:14:36.791Z,93896.64
2019-04-23T04:20:10.524Z,93906.27
2019-04-23T04:23:00.408Z,93909.38
2019-04-23T04:28:44.679Z,93909.66
2019-04-23T04:31:30.960Z,93898.77
2019-04-23T04:42:49.021Z,93899.03
2019-04-23T04:48:27.287Z,93899.97
2019-04-23T04:51:19.447Z,93897.64
2019-04-23T04:57:02.581Z,93901.08
2019-04-23T04:59:53.936Z,93898.75
2019-04-23T05:11:11.756Z,93901.34
2019-04-23T05:13:59.753Z,93899.34
2019-04-23T05:16:49.108Z,93900.74
2019-04-23T05:19:43.418Z,93893.25
2019-04-23T05:22:22.579Z,93896.41
2019-04-23T05:25:10.969Z,93894.64
2019-04-23T05:28:07.702Z,93893.13
2019-04-23T05:33:46.436Z,93884.58
2019-04-23T05:36:34.383Z,93888.88
2019-04-23T05:39:29.099Z,93896.70
2019-04-23T05:42:19.566Z,93893.34
2019-04-23T05:45:02.563Z,93890.89
2019-04-23T05:47:58.676Z,93895.81
2019-04-23T05:50:50.618Z,93899.82
2019-04-23T05:53:39.646Z,93894.21
2019-04-23T05:56:27.728Z,93892.23
2019-04-23T06:02:07.519Z,93895.06
2019-04-23T06:05:02.166Z,93901.98
2019-04-23T06:07:47.754Z,93895.59
2019-04-23T06:10:44.301Z,93895.67
2019-04-23T06:13:33.762Z,93894.77
2019-04-23T06:16:22.186Z,93899.19
2019-04-23T06:19:14.119Z,93898.53
2019-04-23T06:22:11.173Z,93896.94
2019-04-23T06:24:45.616Z,93909.27
2019-04-23T06:27:43.138Z,93896.67
2019-04-23T06:30:35.289Z,93895.03
2019-04-23T06:33:22.810Z,93902.55
2019-04-23T06:36:15.574Z,93905.84
2019-04-23T06:38:57.123Z,93905.11
2019-04-23T06:41:53.090Z,93902.21
2019-04-23T06:48:02.000Z,93896.33
2019-04-23T06:50:36.647Z,93898.89
2019-04-23T06:53:20.968Z,93902.43
2019-04-23T06:56:21.090Z,93905.76
2019-04-23T06:59:09.537Z,93897.76
2019-04-23T07:01:59.661Z,93909.94
2019-04-23T07:04:55.184Z,93897.97
2019-04-23T07:10:26.727Z,93906.45
2019-04-23T07:13:20.626Z,93909.38
2019-04-23T07:16:04.729Z,93899.73
2019-04-23T07:19:16.532Z,93902.51
2019-04-23T07:21:51.351Z,93898.61
2019-04-23T07:24:37.729Z,93893.64
2019-04-23T07:27:24.568Z,93895.31
2019-04-23T07:33:11.658Z,93900.21
2019-04-23T07:36:03.871Z,93909.69
2019-04-23T07:42:09.373Z,93906.56
2019-04-23T07:45:19.359Z,93909.64
2019-04-23T07:48:12.431Z,93906.82
2019-04-23T07:50:55.668Z,93901.37
2019-04-23T07:53:51.790Z,93905.34
2019-04-23T07:56:45.982Z,93907.52
2019-04-23T07:59:41.262Z,93909.67
2019-04-23T08:02:26.216Z,93909.00
2019-04-23T08:05:15.650Z,93909.48
2019-04-23T08:11:30.612Z,93911.89
2019-04-23T08:14:00.551Z,93909.50
2019-04-23T08:16:42.436Z,93914.44
2019-04-23T08:19:49.407Z,93910.38
2019-04-23T08:25:52.397Z,93908.07
2019-04-23T08:28:49.917Z,93907.84
2019-04-23T08:31:32.294Z,93907.45
2019-04-23T08:39:52.127Z,93901.88
2019-04-23T08:45:51.355Z,93887.33
2019-04-23T08:48:41.419Z,93894.48
2019-04-23T08:54:32.212Z,93890.40
2019-04-23T08:57:08.728Z,93883.02
2019-04-23T08:59:55.903Z,93882.86
2019-04-23T09:02:54.080Z,93876.66
2019-04-23T09:05:45.103Z,93873.61
2019-04-23T09:08:44.393Z,93872.71
2019-04-23T09:11:35.827Z,93876.67
2019-04-23T09:14:24.385Z,93871.53
2019-04-23T09:17:06.839Z,93870.04
2019-04-23T09:28:33.277Z,93863.58
2019-04-23T09:31:30.383Z,93863.76
2019-04-23T09:34:42.936Z,93858.03
2019-04-23T09:37:58.459Z,93856.16
2019-04-23T09:41:08.720Z,93845.30
2019-04-23T09:50:01.271Z,93842.16
2019-04-23T09:52:56.133Z,93837.23
2019-04-23T09:58:22.213Z,93830.54
2019-04-23T10:04:00.203Z,93829.63
2019-04-23T10:06:55.316Z,93831.84
2019-04-23T10:09:32.379Z,93827.02
2019-04-23T10:12:22.112Z,93827.23
2019-04-23T10:15:21.496Z,93824.83
2019-04-23T10:18:02.509Z,93824.03
2019-04-23T10:20:52.232Z,93820.16
2019-04-23T10:23:41.254Z,93818.11
2019-04-23T10:26:30.401Z,93816.74
2019-04-23T10:29:23.757Z,93815.02
2019-04-23T10:32:13.609Z,93817.31
2019-04-23T10:35:14.639Z,93813.09
2019-04-23T10:37:58.582Z,93810.50
2019-04-23T10:40:46.764Z,93817.55
2019-04-23T10:43:36.418Z,93818.94
2019-04-23T10:47:12.029Z,93813.91
2019-04-23T10:53:05.052Z,93809.82
2019-04-23T10:58:35.158Z,93810.11
2019-04-23T11:01:29.593Z,93815.09
2019-04-23T11:04:32.853Z,93813.77
2019-04-23T11:07:25.472Z,93812.63
2019-04-23T11:10:07.236Z,93811.33
2019-04-23T11:15:55.708Z,93806.36
2019-04-23T11:18:53.599Z,93805.08
2019-04-23T11:21:34.232Z,93812.88
2019-04-23T11:24:33.054Z,93808.12
2019-04-23T11:27:16.030Z,93820.00
2019-04-23T11:33:05.097Z,93813.28
2019-04-23T11:35:50.570Z,93814.13
2019-04-23T11:41:27.530Z,93811.49
2019-04-23T11:47:07.774Z,93822.98
2019-04-23T11:49:55.243Z,93821.97
2019-04-23T11:58:25.465Z,93824.88
2019-04-23T12:01:51.078Z,93822.04
2019-04-23T12:04:48.595Z,93828.35
2019-04-23T12:07:50.795Z,93821.88
2019-04-23T12:11:27.512Z,93827.22
2019-04-23T12:14:09.553Z,93824.11
2019-04-23T12:17:07.796Z,93821.47
2019-04-23T12:20:00.074Z,93828.49
2019-04-23T12:22:38.960Z,93823.19
2019-04-23T12:28:23.531Z,93812.91
2019-04-23T12:31:10.085Z,93815.64
2019-04-23T12:34:09.500Z,93820.16
2019-04-23T12:36:51.174Z,93814.65
2019-04-23T12:39:49.481Z,93820.65
2019-04-23T12:45:33.512Z,93811.66
2019-04-23T12:48:31.256Z,93810.17
2019-04-23T12:53:19.642Z,93808.32
2019-04-23T12:56:02.009Z,93808.17
2019-04-23T12:58:44.974Z,93816.49
2019-04-23T13:01:51.362Z,93815.31
2019-04-23T13:04:41.609Z,93806.98
2019-04-23T13:07:33.292Z,93808.17
2019-04-23T13:10:14.843Z,93807.49
2019-04-23T13:15:51.911Z,93798.98
2019-04-23T13:18:47.026Z,93798.30
2019-04-23T13:25:01.992Z,93793.59
2019-04-23T13:27:54.296Z,93786.40
2019-04-23T13:33:40.984Z,93795.23
2019-04-23T13:36:32.740Z,93785.92
2019-04-23T13:39:18.665Z,93782.27
2019-04-23T13:42:18.128Z,93781.99
2019-04-23T13:45:13.844Z,93774.18
2019-04-23T13:47:54.724Z,93784.31
2019-04-23T13:50:50.046Z,93776.64
2019-04-23T13:56:24.867Z,93776.09
2019-04-23T13:59:24.296Z,93782.78
2019-04-23T14:02:08.990Z,93780.61
2019-04-23T14:05:13.013Z,93776.80
2019-04-23T14:08:13.636Z,93781.30
2019-04-23T14:10:59.142Z,93773.16
2019-04-23T14:13:59.721Z,93783.49
2019-04-23T14:16:34.325Z,93782.64
2019-04-23T14:19:16.410Z,93783.48
2019-04-23T14:22:31.391Z,93788.62
2019-04-23T14:28:00.181Z,93773.08
2019-04-23T14:30:53.523Z,93764.27
2019-04-23T14:33:47.082Z,93787.94
2019-04-23T14:36:25.467Z,93783.22
2019-04-23T14:39:32.027Z,93783.86
2019-04-23T14:42:20.401Z,93778.46
2019-04-23T14:45:13.828Z,93770.09
2019-04-23T14:48:02.792Z,93775.09
2019-04-23T14:50:41.326Z,93779.08
2019-04-23T14:59:07.365Z,93779.31
2019-04-23T15:02:05.202Z,93775.61
2019-04-23T15:07:47.101Z,93779.44
2019-04-23T15:10:41.314Z,93782.64
2019-04-23T15:16:20.834Z,93780.61
2019-04-23T15:25:19.838Z,93788.83
2019-04-23T15:28:06.608Z,93785.55
2019-04-23T15:30:50.856Z,93774.30
2019-04-23T15:33:51.886Z,93787.38
2019-04-23T15:42:22.742Z,93790.22
2019-04-23T15:45:00.946Z,93792.27
2019-04-23T15:48:00.577Z,93807.27
2019-04-23T15:50:43.255Z,93813.17
2019-04-23T15:53:24.059Z,93810.97
2019-04-23T15:56:35.667Z,93816.22
2019-04-23T16:01:43.471Z,93814.94
2019-04-23T16:04:31.725Z,93817.34
2019-04-23T16:07:38.157Z,93814.23
2019-04-23T16:10:54.603Z,93815.90
2019-04-23T16:13:54.379Z,93822.97
2019-04-23T16:16:30.053Z,93827.98
2019-04-23T16:19:38.072Z,93819.64
2019-04-23T16:22:28.489Z,93824.31
2019-04-23T16:25:12.891Z,93824.63
2019-04-23T16:28:12.910Z,93828.77
2019-04-23T16:31:03.263Z,93824.44
2019-04-23T16:34:05.115Z,93827.05
2019-04-23T16:36:54.690Z,93833.03
2019-04-23T16:39:52.386Z,93836.53
2019-04-23T16:42:38.197Z,93836.76
2019-04-23T16:48:40.659Z,93846.72
2019-04-23T16:54:01.664Z,93839.17
2019-04-23T16:57:15.604Z,93841.18
2019-04-23T17:00:02.619Z,93840.70
2019-04-23T17:02:34.221Z,93841.86
2019-04-23T17:05:35.456Z,93845.51
2019-04-23T17:11:15.172Z,93840.68
2019-04-23T17:14:09.244Z,93841.21
2019-04-23T17:16:59.887Z,93841.87
2019-04-23T17:19:50.456Z,93847.71
2019-04-23T17:22:53.155Z,93848.66
2019-04-23T17:25:48.564Z,93849.35
2019-04-23T17:28:38.351Z,93855.34
2019-04-23T17:31:35.143Z,93860.80
2019-04-23T17:34:23.594Z,93855.48
2019-04-23T17:37:17.992Z,93861.55
2019-04-23T17:40:12.258Z,93864.13
2019-04-23T17:43:08.975Z,93866.56
2019-04-23T17:46:05.251Z,93869.23
2019-04-23T17:51:51.961Z,93871.53
2019-04-23T17:54:45.210Z,93871.09
2019-04-23T17:57:37.594Z,93871.92
2019-04-23T18:03:23.717Z,93876.44
2019-04-23T18:09:14.283Z,93873.77
2019-04-23T18:12:07.249Z,93879.64
2019-04-23T18:14:52.723Z,93882.41
2019-04-23T18:17:48.522Z,93880.04
2019-04-23T18:21:05.084Z,93883.61
2019-04-23T18:24:14.887Z,93883.92
2019-04-23T18:27:11.909Z,93884.33
2019-04-23T18:33:49.044Z,93888.73
2019-04-23T18:36:09.328Z,93898.09
2019-04-23T18:39:08.556Z,93897.00
2019-04-23T18:42:13.625Z,93901.88
2019-04-23T18:44:52.158Z,93907.08
2019-04-23T18:47:45.836Z,93913.39
2019-04-23T18:50:39.691Z,93911.92
2019-04-23T18:53:35.287Z,93918.96
2019-04-23T18:56:19.273Z,93924.02
2019-04-23T19:02:24.075Z,93936.58
2019-04-23T19:08:42.252Z,93938.87
2019-04-23T19:12:01.648Z,93944.48
2019-04-23T19:14:56.160Z,93951.09
2019-04-23T19:20:37.925Z,93950.05
2019-04-23T19:25:54.655Z,93957.05
2019-04-23T19:29:32.242Z,93959.59
2019-04-23T19:37:34.434Z,93953.66
2019-04-23T19:40:24.517Z,93951.27
2019-04-23T19:43:11.216Z,93957.28
2019-04-23T19:51:42.776Z,93954.98
2019-04-23T19:54:54.166Z,93952.23
2019-04-23T19:57:24.335Z,93957.77
2019-04-23T20:00:11.435Z,93956.72
2019-04-23T20:03:19.935Z,93958.19
2019-04-23T20:06:15.016Z,93955.45
2019-04-23T20:11:52.651Z,93954.64
2019-04-23T20:17:37.997Z,93958.92
2019-04-23T20:20:10.264Z,93962.42
2019-04-23T20:23:18.266Z,93963.98
2019-04-23T20:32:15.344Z,93962.44
2019-04-23T20:38:09.766Z,93964.71
2019-04-23T20:40:40.117Z,93970.48
2019-04-23T20:43:22.798Z,93970.00
2019-04-23T20:46:14.864Z,93964.14
2019-04-23T20:49:10.944Z,93970.04
2019-04-23T20:54:56.592Z,93976.48
2019-04-23T20:57:47.311Z,93981.28
2019-04-23T21:00:56.372Z,93981.64
2019-04-23T21:06:30.071Z,93983.08
2019-04-23T21:12:16.306Z,93978.62
2019-04-23T21:18:22.441Z,93984.91
2019-04-23T21:20:42.726Z,93982.64
2019-04-23T21:23:30.250Z,93990.05
2019-04-23T21:26:19.936Z,93995.87
2019-04-23T21:29:16.968Z,94000.65
2019-04-23T21:32:09.314Z,94004.92
2019-04-23T21:35:04.544Z,94001.80
2019-04-23T21:47:09.934Z,94012.83
2019-04-23T21:50:11.917Z,94015.53
2019-04-23T21:52:56.327Z,94010.17
2019-04-23T21:55:54.525Z,94013.84
2019-04-23T21:58:47.126Z,94012.20
2019-04-23T22:04:25.314Z,94009.64
2019-04-23T22:07:09.567Z,94019.96
2019-04-23T22:13:05.381Z,94012.08
2019-04-23T22:15:58.325Z,94019.20
2019-04-23T22:18:37.913Z,94019.09
2019-04-23T22:21:20.861Z,94018.84
2019-04-23T22:24:05.658Z,94023.16
2019-04-23T22:26:57.654Z,94024.09
2019-04-23T22:29:49.211Z,94021.56
2019-04-23T22:32:47.707Z,94026.82
2019-04-23T22:35:30.501Z,94027.62
2019-04-23T22:38:30.092Z,94029.30
2019-04-23T22:41:09.089Z,94030.37
2019-04-23T22:46:59.224Z,94031.20
2019-04-23T22:55:42.847Z,94027.75
2019-04-23T22:58:27.622Z,94026.63
2019-04-23T23:10:02.386Z,94033.72
2019-04-23T23:12:59.986Z,94035.61
2019-04-23T23:15:43.831Z,94030.94
2019-04-23T23:18:28.422Z,94023.06
2019-04-23T23:24:12.707Z,94026.88
2019-04-23T23:27:00.380Z,94030.73
2019-04-23T23:29:58.118Z,94031.92
2019-04-23T23:32:40.175Z,94023.95
2019-04-23T23:35:28.416Z,94030.52
2019-04-23T23:38:31.388Z,94024.32
2019-04-23T23:44:24.068Z,94027.31
2019-04-23T23:47:01.683Z,94035.93
2019-04-23T23:49:48.521Z,94032.66
2019-04-23T23:52:38.967Z,94031.55
2019-04-23T23:55:24.994Z,94038.64
2019-04-23T23:58:15.038Z,94032.66
